Time;durP1;ratioP1;P1;durP2;ratioP2;P2;SDS_P1;SDS_P2;PMS_P1;PMS_P2;Temp;Humidity;BMP_temperature;BMP_pressure;BME280_temperature;BME280_humidity;BME280_pressure;Samples;Min_cycle;Max_cycle;Signal;HPM_P1;HPM_P2
2022/01/13 00:00:31;;;;;;;4.47;4.23;;;18.40;38.60;;;;;;5005958;28;20447;-66
2022/01/13 00:02:56;;;;;;;4.27;3.97;;;18.40;38.70;;;;;;5000881;28;20223;-65
2022/01/13 00:05:29;;;;;;;4.63;4.33;;;18.40;38.70;;;;;;5004572;28;20479;-64
2022/01/13 00:07:57;;;;;;;4.83;4.43;;;18.40;38.70;;;;;;5002268;28;20589;-65
2022/01/13 00:10:26;;;;;;;4.90;4.50;;;18.40;39.40;;;;;;5007737;28;20937;-65
2022/01/13 00:13:05;;;;;;;4.33;4.03;;;18.40;38.60;;;;;;5000854;28;20437;-65
2022/01/13 00:15:47;;;;;;;4.00;3.70;;;18.30;38.50;;;;;;5000784;28;20954;-65
2022/01/13 00:18:15;;;;;;;4.00;3.80;;;18.40;38.70;;;;;;4998777;28;20896;-65
2022/01/13 00:26:00;;;;;;;4.50;4.10;;;18.40;38.70;;;;;;5004207;28;20832;-66
2022/01/13 00:28:26;;;;;;;4.30;4.00;;;18.40;38.70;;;;;;5003234;28;20449;-66
2022/01/13 00:30:55;;;;;;;4.53;4.23;;;18.40;38.80;;;;;;5000118;28;20441;-66
2022/01/13 00:33:24;;;;;;;3.97;3.67;;;18.40;38.80;;;;;;4998362;28;20221;-66
2022/01/13 00:35:55;;;;;;;4.53;4.20;;;18.30;38.60;;;;;;5001251;28;20472;-66
2022/01/13 00:38:21;;;;;;;4.73;4.43;;;18.40;38.70;;;;;;4999426;28;20460;-65
2022/01/13 00:40:47;;;;;;;5.17;3.97;;;18.40;38.70;;;;;;5006312;28;20412;-66
2022/01/13 00:47:07;;;;;;;3.50;3.30;;;18.30;38.70;;;;;;4934166;28;20261;-66
2022/01/13 00:49:33;;;;;;;4.63;4.10;;;18.30;38.80;;;;;;5021970;28;20431;-65
2022/01/13 00:51:58;;;;;;;5.23;4.40;;;18.30;38.80;;;;;;5020330;28;20966;-66
2022/01/13 00:54:25;;;;;;;4.20;3.90;;;18.30;38.70;;;;;;5024015;28;20285;-65
2022/01/13 00:56:51;;;;;;;4.07;3.73;;;18.30;38.70;;;;;;5018415;28;20248;-65
2022/01/13 00:59:17;;;;;;;4.23;3.83;;;18.30;38.70;;;;;;5020852;28;20499;-66
2022/01/13 01:01:47;;;;;;;3.93;3.60;;;18.30;38.80;;;;;;5018741;28;20480;-65
2022/01/13 01:04:14;;;;;;;4.40;4.03;;;18.30;38.80;;;;;;5023313;28;20453;-65
2022/01/13 01:06:40;;;;;;;4.03;3.73;;;18.30;39.50;;;;;;5021626;28;20830;-65
2022/01/13 01:09:13;;;;;;;4.57;4.23;;;18.30;38.80;;;;;;5017719;28;20535;-65
2022/01/13 01:11:39;;;;;;;4.20;3.80;;;18.30;38.80;;;;;;5016516;28;20457;-66
2022/01/13 01:14:08;;;;;;;4.40;4.10;;;18.30;38.80;;;;;;5017359;28;20443;-65
2022/01/13 01:16:36;;;;;;;4.67;4.30;;;18.30;38.80;;;;;;5019727;28;20309;-66
2022/01/13 01:19:07;;;;;;;3.90;3.60;;;18.30;38.70;;;;;;5026929;28;20816;-65
2022/01/13 01:22:03;;;;;;;5.17;4.47;;;18.30;38.80;;;;;;5020778;28;20455;-66
2022/01/13 01:26:53;;;;;;;3.60;3.40;;;18.30;38.80;;;;;;5021497;28;20545;-65
2022/01/13 01:29:29;;;;;;;3.20;3.00;;;18.30;38.80;;;;;;5018921;28;20314;-66
2022/01/13 01:31:56;;;;;;;4.70;4.37;;;18.30;38.80;;;;;;5020911;28;20437;-65
2022/01/13 01:34:46;;;;;;;4.00;3.70;;;18.30;38.80;;;;;;5021352;28;20897;-65
2022/01/13 01:37:17;;;;;;;5.40;4.40;;;18.30;38.80;;;;;;5020550;28;20449;-65
2022/01/13 01:39:48;;;;;;;4.00;3.70;;;18.30;38.90;;;;;;5026078;28;20519;-65
2022/01/13 01:42:14;;;;;;;4.17;3.80;;;18.30;38.80;;;;;;5018952;28;21371;-65
2022/01/13 01:44:43;;;;;;;4.17;3.87;;;18.30;38.80;;;;;;5022637;28;20452;-65
2022/01/13 01:47:13;;;;;;;4.70;4.30;;;18.30;38.80;;;;;;5018476;28;20526;-66
2022/01/13 01:49:42;;;;;;;3.83;3.63;;;18.30;38.90;;;;;;5020434;28;20448;-66
2022/01/13 01:52:10;;;;;;;4.20;3.80;;;18.30;38.80;;;;;;5019438;28;20427;-66
2022/01/13 01:54:36;;;;;;;4.67;4.10;;;18.30;38.80;;;;;;5018703;28;20453;-65
2022/01/13 01:57:03;;;;;;;4.17;3.87;;;18.30;38.80;;;;;;5018172;28;20948;-65
2022/01/13 01:59:32;;;;;;;4.70;4.30;;;18.30;39.60;;;;;;5019140;28;20455;-65
2022/01/13 02:01:58;;;;;;;4.53;4.23;;;18.30;38.80;;;;;;5021159;28;20461;-65
2022/01/13 02:04:26;;;;;;;4.57;4.17;;;18.30;38.80;;;;;;5018838;28;21063;-65
2022/01/13 02:06:54;;;;;;;4.00;3.80;;;18.30;38.80;;;;;;5021676;28;20419;-65
2022/01/13 02:09:20;;;;;;;4.73;4.30;;;18.30;38.80;;;;;;5015731;28;20432;-65
2022/01/13 02:11:51;;;;;;;4.33;3.97;;;18.30;38.80;;;;;;5016129;28;20547;-66
2022/01/13 02:16:52;;;;;;;5.30;4.90;;;18.30;38.80;;;;;;5020453;28;20429;-65
2022/01/13 02:19:19;;;;;;;4.63;4.33;;;18.30;38.70;;;;;;5018892;28;20431;-65
2022/01/13 02:21:45;;;;;;;4.87;4.57;;;18.30;38.70;;;;;;5017027;28;20503;-65
2022/01/13 02:24:11;;;;;;;5.53;5.03;;;18.20;38.60;;;;;;5018093;28;20441;-65
2022/01/13 02:26:37;;;;;;;3.80;3.60;;;18.30;38.60;;;;;;5018603;28;20766;-65
2022/01/13 02:29:03;;;;;;;4.27;3.97;;;18.30;38.60;;;;;;5018802;28;20438;-65
2022/01/13 02:31:29;;;;;;;4.37;4.07;;;18.30;38.60;;;;;;5015376;28;20447;-65
2022/01/13 02:33:54;;;;;;;4.60;4.30;;;18.30;38.60;;;;;;5018595;28;20453;-65
2022/01/13 02:36:22;;;;;;;5.40;4.90;;;18.30;38.60;;;;;;5018792;28;20231;-65
2022/01/13 02:38:50;;;;;;;4.00;3.70;;;18.20;38.50;;;;;;5018194;28;20324;-65
2022/01/13 02:41:16;;;;;;;5.37;4.93;;;18.20;38.50;;;;;;5023648;28;20486;-65
2022/01/13 02:43:44;;;;;;;4.40;4.10;;;18.30;38.50;;;;;;5021463;28;20460;-65
2022/01/13 02:49:05;;;;;;;3.90;3.70;;;18.20;38.40;;;;;;5017458;28;20449;-65
2022/01/13 02:51:32;;;;;;;4.10;3.70;;;18.20;38.40;;;;;;5022630;28;20476;-65
2022/01/13 02:53:58;;;;;;;3.60;3.40;;;18.20;38.40;;;;;;5024787;28;20448;-65
2022/01/13 02:56:24;;;;;;;3.53;3.33;;;18.20;38.50;;;;;;5024728;28;20447;-65
2022/01/13 02:58:49;;;;;;;4.70;4.30;;;18.20;38.50;;;;;;5024705;28;20816;-65
2022/01/13 03:01:15;;;;;;;3.73;3.50;;;18.20;38.50;;;;;;5022489;28;20222;-65
2022/01/13 03:03:42;;;;;;;4.07;3.67;;;18.20;38.50;;;;;;5022059;28;20580;-65
2022/01/13 03:06:09;;;;;;;4.40;4.10;;;18.20;38.50;;;;;;5022598;28;20419;-65
2022/01/13 03:08:37;;;;;;;3.80;3.40;;;18.20;38.50;;;;;;5019543;28;21572;-65
2022/01/13 03:11:03;;;;;;;4.67;4.37;;;18.20;38.60;;;;;;5027043;28;20471;-65
2022/01/13 03:13:29;;;;;;;3.50;3.30;;;18.20;38.60;;;;;;5023189;28;20464;-66
2022/01/13 03:15:55;;;;;;;3.80;3.60;;;18.20;38.60;;;;;;5023565;28;20687;-65
2022/01/13 03:18:21;;;;;;;4.50;4.13;;;18.20;38.60;;;;;;5022231;28;20424;-65
2022/01/13 03:20:47;;;;;;;3.83;3.63;;;18.20;38.50;;;;;;5019392;28;20223;-65
2022/01/13 03:23:17;;;;;;;3.50;3.30;;;18.20;38.60;;;;;;5022094;28;20231;-65
2022/01/13 03:25:45;;;;;;;3.70;3.50;;;18.20;38.60;;;;;;5024021;28;20225;-65
2022/01/13 03:28:16;;;;;;;3.60;3.30;;;18.20;38.60;;;;;;5022520;28;20954;-66
2022/01/13 03:30:43;;;;;;;3.70;3.50;;;18.30;38.70;;;;;;5022039;28;20970;-65
2022/01/13 03:33:10;;;;;;;4.07;3.77;;;18.30;38.70;;;;;;5021682;28;20424;-66
2022/01/13 03:35:38;;;;;;;4.70;3.73;;;18.30;38.60;;;;;;5022118;28;20447;-66
2022/01/13 03:38:04;;;;;;;4.20;3.90;;;18.30;38.60;;;;;;5021228;28;20432;-65
2022/01/13 03:40:31;;;;;;;3.70;3.40;;;18.20;38.60;;;;;;5022692;28;20489;-66
2022/01/13 03:42:58;;;;;;;3.73;3.50;;;18.20;38.60;;;;;;5024943;28;20485;-65
2022/01/13 03:45:23;;;;;;;3.90;3.60;;;18.20;39.40;;;;;;5018952;28;20427;-65
2022/01/13 03:47:49;;;;;;;3.47;3.17;;;18.30;38.70;;;;;;5021997;28;20419;-66
2022/01/13 03:50:15;;;;;;;3.43;3.23;;;18.20;38.60;;;;;;5020373;28;20906;-65
2022/01/13 03:53:01;;;;;;;3.70;3.50;;;18.20;38.70;;;;;;5023043;28;20242;-65
2022/01/13 03:55:36;;;;;;;3.57;3.23;;;18.30;38.70;;;;;;5018683;28;20224;-65
2022/01/13 03:58:34;;;;;;;4.17;3.87;;;18.30;38.80;;;;;;5021926;28;20779;-66
2022/01/13 04:01:37;;;;;;;3.70;3.50;;;18.20;38.70;;;;;;5023500;28;20564;-65
2022/01/13 04:04:02;;;;;;;3.80;3.50;;;18.20;38.60;;;;;;5002994;28;20428;-66
2022/01/13 04:06:40;;;;;;;3.63;3.43;;;18.20;38.60;;;;;;5005198;28;20463;-66
2022/01/13 04:09:30;;;;;;;3.30;3.10;;;18.20;38.70;;;;;;4997708;28;20581;-65
2022/01/13 04:11:56;;;;;;;3.60;3.40;;;18.20;38.70;;;;;;5000154;28;20468;-65
2022/01/13 04:14:29;;;;;;;3.90;3.50;;;18.20;38.70;;;;;;4999823;28;20409;-65
2022/01/13 04:16:55;;;;;;;4.07;3.77;;;18.20;38.70;;;;;;5001879;28;20416;-65
2022/01/13 04:19:20;;;;;;;3.90;3.70;;;18.20;38.60;;;;;;4999955;28;20560;-65
2022/01/13 04:21:46;;;;;;;3.50;3.30;;;18.20;38.70;;;;;;5001059;28;20678;-65
2022/01/13 04:24:12;;;;;;;4.20;3.90;;;18.20;38.60;;;;;;4999026;28;20694;-65
2022/01/13 04:26:43;;;;;;;3.07;2.87;;;18.20;38.70;;;;;;5001289;28;20299;-67
2022/01/13 04:31:35;;;;;;;3.97;3.77;;;18.20;38.70;;;;;;5002984;28;20523;-66
2022/01/13 04:34:00;;;;;;;5.00;3.80;;;18.30;38.70;;;;;;5001761;28;20438;-67
2022/01/13 04:36:26;;;;;;;3.67;3.47;;;18.30;38.70;;;;;;5000241;28;20591;-66
2022/01/13 04:38:52;;;;;;;3.60;3.40;;;18.20;38.60;;;;;;4999457;28;20263;-66
2022/01/13 04:41:28;;;;;;;3.40;3.20;;;18.20;38.60;;;;;;5000633;28;20423;-66
2022/01/13 04:43:54;;;;;;;4.13;3.80;;;18.30;38.70;;;;;;5000480;28;20240;-65
2022/01/13 04:46:20;;;;;;;4.10;3.80;;;18.20;38.60;;;;;;5000804;28;20454;-66
2022/01/13 04:48:45;;;;;;;3.70;3.50;;;18.20;38.60;;;;;;5003930;28;20886;-66
2022/01/13 04:51:11;;;;;;;3.60;3.40;;;18.30;38.70;;;;;;5001895;28;20232;-66
2022/01/13 04:53:36;;;;;;;3.40;3.20;;;18.20;39.40;;;;;;5000789;28;20649;-66
2022/01/13 04:56:09;;;;;;;3.70;3.40;;;18.20;38.60;;;;;;5003355;28;20592;-66
2022/01/13 04:58:35;;;;;;;3.50;3.30;;;18.20;38.70;;;;;;4997145;28;20657;-66
2022/01/13 05:01:00;;;;;;;3.97;3.67;;;18.20;38.70;;;;;;4999040;28;20452;-66
2022/01/13 05:03:26;;;;;;;4.03;3.83;;;18.20;38.60;;;;;;5001021;28;20263;-66
2022/01/13 05:05:51;;;;;;;4.17;3.87;;;18.20;38.60;;;;;;4999913;28;20244;-66
2022/01/13 05:08:17;;;;;;;3.97;3.67;;;18.20;38.60;;;;;;5006892;28;20657;-66
2022/01/13 05:10:43;;;;;;;3.83;3.53;;;18.20;38.60;;;;;;5000647;28;20303;-66
2022/01/13 05:13:10;;;;;;;3.80;3.60;;;18.20;38.60;;;;;;4999184;28;20220;-66
2022/01/13 05:15:38;;;;;;;3.37;3.17;;;18.20;38.50;;;;;;5002265;28;20308;-66
2022/01/13 05:18:19;;;;;;;3.77;3.50;;;18.20;38.60;;;;;;5004197;28;20428;-66
2022/01/13 05:20:55;;;;;;;3.00;2.80;;;18.20;38.60;;;;;;4999997;28;20477;-66
2022/01/13 05:23:21;;;;;;;3.30;3.10;;;18.30;38.70;;;;;;4999624;28;20478;-66
2022/01/13 05:25:46;;;;;;;4.10;3.70;;;18.30;38.60;;;;;;5006460;28;20515;-66
2022/01/13 05:28:13;;;;;;;3.30;3.10;;;18.30;38.60;;;;;;5002605;28;20602;-66
2022/01/13 05:30:39;;;;;;;3.07;2.87;;;18.30;38.60;;;;;;5001384;28;20271;-66
2022/01/13 05:33:05;;;;;;;3.80;3.50;;;18.30;38.60;;;;;;5000880;28;20872;-66
2022/01/13 05:35:31;;;;;;;3.23;3.03;;;18.30;38.50;;;;;;4999641;28;20243;-66
2022/01/13 05:37:56;;;;;;;4.10;3.80;;;18.30;38.50;;;;;;5000828;28;20227;-66
2022/01/13 05:40:23;;;;;;;3.63;3.43;;;18.30;38.50;;;;;;5004834;28;20716;-69
2022/01/13 05:42:50;;;;;;;3.80;3.50;;;18.30;38.50;;;;;;5001745;28;20716;-75
2022/01/13 05:45:18;;;;;;;3.33;3.13;;;18.30;38.50;;;;;;4997379;28;20429;-70
2022/01/13 05:47:45;;;;;;;2.37;2.27;;;18.40;38.60;;;;;;5000601;28;20423;-72
2022/01/13 05:50:14;;;;;;;3.43;3.13;;;18.40;38.50;;;;;;5002842;28;20425;-73
2022/01/13 05:52:39;;;;;;;3.43;3.23;;;18.40;38.50;;;;;;5002910;28;20428;-74
2022/01/13 05:55:06;;;;;;;3.40;3.20;;;18.40;38.50;;;;;;5001403;28;20432;-74
2022/01/13 05:57:32;;;;;;;3.40;3.20;;;18.40;38.40;;;;;;5001178;28;20289;-71
2022/01/13 05:59:58;;;;;;;2.70;2.50;;;18.40;38.50;;;;;;5002998;28;20427;-71
2022/01/13 06:02:24;;;;;;;3.17;2.97;;;18.40;38.50;;;;;;5003084;28;20460;-71
2022/01/13 06:04:49;;;;;;;3.47;3.17;;;18.40;38.40;;;;;;5000026;28;20224;-71
2022/01/13 06:07:16;;;;;;;3.53;3.20;;;18.40;38.40;;;;;;5002745;28;20730;-71
2022/01/13 06:09:42;;;;;;;3.57;3.30;;;18.40;38.50;;;;;;5004272;28;20224;-72
2022/01/13 06:12:08;;;;;;;3.77;3.47;;;18.50;38.50;;;;;;4999120;28;20461;-71
2022/01/13 06:14:35;;;;;;;3.23;3.03;;;18.50;38.50;;;;;;4999115;28;20220;-71
2022/01/13 06:17:01;;;;;;;2.90;2.70;;;18.50;38.50;;;;;;4998563;28;20234;-71
2022/01/13 06:19:26;;;;;;;3.57;3.27;;;18.50;38.40;;;;;;5003324;28;21010;-69
2022/01/13 06:21:52;;;;;;;3.50;3.20;;;18.50;38.50;;;;;;5001374;28;20228;-69
2022/01/13 06:24:17;;;;;;;3.50;3.30;;;18.50;38.50;;;;;;5003871;28;20224;-70
2022/01/13 06:26:43;;;;;;;3.77;3.33;;;18.50;39.30;;;;;;5001545;28;20580;-68
2022/01/13 06:29:09;;;;;;;3.87;3.63;;;18.50;38.50;;;;;;5002177;28;20216;-72
2022/01/13 06:31:34;;;;;;;3.60;3.30;;;18.50;38.50;;;;;;5000147;28;20326;-73
2022/01/13 06:34:00;;;;;;;3.47;3.27;;;18.50;38.50;;;;;;5001868;28;20223;-75
2022/01/13 06:36:26;;;;;;;3.33;3.13;;;18.50;38.50;;;;;;5003883;28;20215;-72
2022/01/13 06:38:51;;;;;;;2.80;2.60;;;18.50;38.60;;;;;;5001051;28;20577;-72
2022/01/13 06:41:18;;;;;;;5.67;5.17;;;18.50;38.50;;;;;;5005299;28;20582;-72
2022/01/13 06:43:45;;;;;;;10.20;8.37;;;18.50;38.20;;;;;;5004001;28;20212;-73
2022/01/13 06:46:15;;;;;;;3.80;3.50;;;18.50;37.90;;;;;;5006409;28;20449;-71
2022/01/13 06:48:45;;;;;;;6.20;3.70;;;18.60;38.00;;;;;;5001514;28;20475;-70
2022/01/13 06:51:10;;;;;;;3.30;3.10;;;18.60;38.00;;;;;;5003246;28;20456;-68
2022/01/13 06:53:36;;;;;;;3.63;3.33;;;18.60;38.00;;;;;;4999291;28;20424;-68
2022/01/13 06:56:02;;;;;;;4.30;3.50;;;18.50;37.90;;;;;;5001217;28;20247;-71
2022/01/13 06:58:28;;;;;;;2.60;2.40;;;18.50;37.90;;;;;;5004541;28;20254;-68
2022/01/13 07:00:54;;;;;;;3.50;3.20;;;18.60;38.00;;;;;;5005345;28;20239;-67
2022/01/13 07:03:20;;;;;;;3.47;2.90;;;18.60;38.00;;;;;;5005271;28;20231;-68
2022/01/13 07:05:46;;;;;;;3.60;3.40;;;18.60;38.00;;;;;;5002823;28;20261;-67
2022/01/13 07:08:12;;;;;;;3.17;2.97;;;18.60;38.00;;;;;;5001492;28;20424;-67
2022/01/13 07:10:38;;;;;;;3.20;3.00;;;18.60;38.00;;;;;;5002117;28;20224;-68
2022/01/13 07:13:04;;;;;;;3.23;3.00;;;18.60;38.00;;;;;;5006760;28;20457;-67
2022/01/13 07:15:31;;;;;;;3.53;3.33;;;18.60;38.00;;;;;;4994403;28;20230;-67
2022/01/13 07:17:57;;;;;;;5.93;3.97;;;18.60;38.10;;;;;;5006014;28;20358;-67
2022/01/13 07:20:24;;;;;;;3.40;3.10;;;18.60;38.10;;;;;;5002799;28;20476;-68
2022/01/13 07:22:51;;;;;;;5.23;3.43;;;18.60;38.30;;;;;;5004676;28;20427;-68
2022/01/13 07:25:17;;;;;;;3.60;3.40;;;18.60;38.30;;;;;;5005501;28;20465;-68
2022/01/13 07:27:43;;;;;;;4.13;3.73;;;18.50;38.30;;;;;;5003664;28;20466;-67
2022/01/13 07:30:10;;;;;;;4.13;3.73;;;18.60;38.30;;;;;;5000502;28;20460;-67
2022/01/13 07:32:37;;;;;;;3.53;3.23;;;18.50;38.40;;;;;;5004217;28;20345;-67
2022/01/13 07:35:03;;;;;;;4.17;3.87;;;18.50;38.40;;;;;;5003792;28;21260;-68
2022/01/13 07:37:29;;;;;;;3.80;3.57;;;18.60;38.50;;;;;;5008267;28;20969;-67
2022/01/13 07:39:55;;;;;;;3.20;3.00;;;18.60;38.50;;;;;;5004041;28;20432;-69
2022/01/13 07:42:23;;;;;;;3.97;3.67;;;18.50;38.40;;;;;;5003057;28;20282;-68
2022/01/13 07:44:48;;;;;;;3.90;3.60;;;18.60;38.50;;;;;;5001840;28;20216;-67
2022/01/13 07:47:14;;;;;;;3.93;3.63;;;18.50;38.40;;;;;;5004424;28;20479;-67
2022/01/13 07:49:40;;;;;;;4.60;4.20;;;18.50;38.40;;;;;;5001266;28;20228;-67
2022/01/13 07:52:05;;;;;;;3.80;3.60;;;18.50;38.50;;;;;;4998197;28;20295;-68
2022/01/13 07:54:32;;;;;;;4.07;3.57;;;18.50;38.40;;;;;;4998454;28;20223;-67
2022/01/13 07:56:58;;;;;;;3.87;3.60;;;18.50;38.50;;;;;;5003618;28;20314;-67
2022/01/13 07:59:27;;;;;;;3.60;3.40;;;18.50;38.50;;;;;;5002786;28;20439;-67
2022/01/13 08:01:54;;;;;;;3.30;3.10;;;18.50;38.50;;;;;;5003651;28;20456;-68
2022/01/13 08:04:21;;;;;;;3.33;3.10;;;18.50;38.40;;;;;;5001611;28;20429;-67
2022/01/13 08:06:47;;;;;;;4.13;3.80;;;18.50;38.50;;;;;;5002134;28;20511;-67
2022/01/13 08:09:13;;;;;;;3.40;3.10;;;18.50;38.50;;;;;;5004881;28;20515;-67
2022/01/13 08:11:38;;;;;;;4.30;4.00;;;18.50;38.40;;;;;;5003732;28;20436;-66
2022/01/13 08:14:04;;;;;;;3.83;3.53;;;18.50;38.50;;;;;;5001671;28;20686;-66
2022/01/13 08:16:34;;;;;;;3.53;3.20;;;18.60;38.60;;;;;;5001116;28;20232;-66
2022/01/13 08:21:44;;;;;;;3.87;3.57;;;18.60;38.50;;;;;;5001446;28;20486;-66
2022/01/13 08:24:09;;;;;;;4.10;3.90;;;18.60;38.50;;;;;;5003765;28;20420;-66
2022/01/13 08:26:35;;;;;;;4.43;3.83;;;18.60;38.50;;;;;;5003943;28;20223;-65
2022/01/13 08:29:01;;;;;;;3.70;3.50;;;18.60;38.50;;;;;;5002932;28;20238;-65
2022/01/13 08:31:26;;;;;;;4.13;3.90;;;18.60;38.40;;;;;;5002441;28;20326;-66
2022/01/13 08:33:52;;;;;;;3.77;3.57;;;18.60;38.50;;;;;;5000849;28;20223;-65
2022/01/13 08:36:17;;;;;;;4.13;3.80;;;18.60;38.50;;;;;;5005085;28;20219;-65
2022/01/13 08:38:43;;;;;;;3.80;3.50;;;18.60;38.40;;;;;;5002113;28;20310;-65
2022/01/13 08:41:09;;;;;;;3.77;3.57;;;18.60;38.50;;;;;;5004395;28;20220;-66
2022/01/13 08:43:36;;;;;;;3.83;3.63;;;18.60;38.50;;;;;;5000656;28;20229;-64
2022/01/13 08:46:03;;;;;;;3.83;3.63;;;18.60;38.50;;;;;;5000081;28;20548;-66
2022/01/13 08:48:30;;;;;;;3.93;3.63;;;18.60;38.50;;;;;;5000039;28;20503;-65
2022/01/13 08:50:56;;;;;;;3.70;3.40;;;18.60;38.30;;;;;;4998903;28;20477;-65
2022/01/13 08:53:21;;;;;;;4.07;3.87;;;18.60;38.30;;;;;;5029399;28;20454;-65
2022/01/13 08:55:48;;;;;;;4.90;4.40;;;18.60;38.40;;;;;;5002045;28;20485;-65
2022/01/13 08:58:14;;;;;;;4.23;3.83;;;18.60;38.30;;;;;;5002893;28;20239;-65
2022/01/13 09:00:42;;;;;;;4.57;4.17;;;18.60;39.10;;;;;;4997449;28;20951;-66
2022/01/13 09:03:07;;;;;;;3.67;3.37;;;18.60;38.30;;;;;;5002079;28;20428;-66
2022/01/13 09:05:35;;;;;;;3.97;3.67;;;18.60;38.40;;;;;;4997793;28;20418;-66
2022/01/13 09:08:03;;;;;;;3.37;3.17;;;18.60;38.30;;;;;;4999372;28;20254;-66
2022/01/13 09:10:29;;;;;;;4.30;4.00;;;18.60;38.30;;;;;;5002660;28;20450;-66
2022/01/13 09:12:55;;;;;;;3.70;3.40;;;18.60;38.30;;;;;;5000555;28;20812;-65
2022/01/13 09:15:33;;;;;;;3.43;3.17;;;18.60;38.30;;;;;;5000039;28;20224;-65
2022/01/13 09:18:07;;;;;;;4.20;3.87;;;18.60;38.30;;;;;;5001284;28;20223;-65
2022/01/13 09:20:33;;;;;;;3.50;3.13;;;18.60;38.30;;;;;;5002526;28;20452;-65
2022/01/13 09:22:58;;;;;;;3.70;3.40;;;18.60;38.30;;;;;;4997650;28;20428;-65
2022/01/13 09:25:25;;;;;;;3.53;3.23;;;18.70;38.50;;;;;;5001244;28;20340;-65
2022/01/13 09:27:51;;;;;;;3.70;3.50;;;18.60;38.30;;;;;;4999867;28;20240;-66
2022/01/13 09:30:17;;;;;;;3.80;3.50;;;18.60;38.40;;;;;;4997749;28;20509;-65
2022/01/13 09:32:43;;;;;;;3.63;3.43;;;18.60;38.30;;;;;;4997758;28;20642;-65
2022/01/13 09:35:10;;;;;;;3.83;3.63;;;18.60;38.30;;;;;;5001494;28;20307;-65
2022/01/13 09:37:36;;;;;;;3.83;3.63;;;18.60;38.30;;;;;;5001447;28;20512;-65
2022/01/13 09:40:05;;;;;;;4.07;3.73;;;18.60;38.40;;;;;;5001531;28;20221;-64
2022/01/13 09:42:33;;;;;;;4.10;3.80;;;18.60;38.30;;;;;;4999968;28;20432;-65
2022/01/13 09:45:01;;;;;;;3.40;3.20;;;18.60;38.30;;;;;;5003408;28;21026;-67
2022/01/13 09:47:27;;;;;;;3.60;3.40;;;18.60;38.30;;;;;;4998682;28;20454;-66
2022/01/13 09:49:52;;;;;;;3.97;3.67;;;18.60;38.40;;;;;;4998153;28;20424;-66
2022/01/13 09:52:21;;;;;;;3.87;3.47;;;18.60;38.40;;;;;;5003096;28;20744;-66
2022/01/13 09:54:48;;;;;;;3.73;3.47;;;18.60;38.40;;;;;;4998795;28;20315;-65
2022/01/13 09:57:14;;;;;;;3.57;3.37;;;18.60;38.40;;;;;;4999108;28;20440;-65
2022/01/13 09:59:40;;;;;;;4.37;4.10;;;18.60;38.50;;;;;;5002051;28;20454;-65
2022/01/13 10:02:06;;;;;;;3.47;3.27;;;18.60;38.50;;;;;;5000456;28;20224;-65
2022/01/13 10:04:46;;;;;;;4.40;4.10;;;18.60;38.50;;;;;;4998614;28;21491;-65
2022/01/13 10:07:13;;;;;;;3.10;2.90;;;18.60;38.40;;;;;;4999892;28;20216;-65
2022/01/13 10:09:53;;;;;;;5.00;3.30;;;18.60;38.40;;;;;;5000923;28;20507;-66
2022/01/13 10:12:36;;;;;;;3.87;3.67;;;18.60;38.30;;;;;;5000119;28;20546;-65
2022/01/13 10:17:47;;;;;;;3.83;3.63;;;18.60;38.40;;;;;;5000565;28;20465;-65
2022/01/13 10:20:15;;;;;;;3.97;3.67;;;18.60;38.50;;;;;;4998214;28;20473;-65
2022/01/13 10:22:41;;;;;;;3.93;3.73;;;18.50;38.40;;;;;;4994439;28;20446;-65
2022/01/13 10:25:08;;;;;;;3.67;3.47;;;18.60;39.20;;;;;;5003284;28;20524;-65
2022/01/13 10:27:35;;;;;;;5.50;3.90;;;18.60;38.50;;;;;;4998203;28;20258;-66
2022/01/13 10:30:05;;;;;;;4.20;3.80;;;18.60;38.50;;;;;;5001548;28;20492;-67
2022/01/13 10:32:37;;;;;;;3.70;3.40;;;18.60;38.50;;;;;;4998417;28;20462;-66
2022/01/13 10:35:05;;;;;;;3.90;3.30;;;18.60;39.20;;;;;;5001285;28;21816;-66
2022/01/13 10:37:35;;;;;;;3.60;3.40;;;18.60;38.50;;;;;;4998000;28;20788;-66
2022/01/13 10:40:14;;;;;;;3.53;3.20;;;18.50;38.40;;;;;;4995045;28;20439;-66
2022/01/13 10:45:42;;;;;;;4.00;3.70;;;18.50;38.40;;;;;;5002996;28;20458;-65
2022/01/13 10:48:08;;;;;;;3.70;3.40;;;18.60;38.50;;;;;;4998821;28;20435;-65
2022/01/13 10:50:41;;;;;;;3.63;3.43;;;18.50;38.40;;;;;;5000841;28;20442;-65
2022/01/13 10:53:13;;;;;;;3.00;2.80;;;18.60;38.50;;;;;;4997769;28;20268;-65
2022/01/13 10:55:47;;;;;;;3.50;3.30;;;18.50;38.40;;;;;;5001798;28;20769;-65
2022/01/13 10:58:16;;;;;;;3.43;3.10;;;18.50;38.40;;;;;;4997138;28;20500;-65
2022/01/13 11:00:42;;;;;;;3.20;3.00;;;18.50;38.50;;;;;;4996286;28;20453;-65
2022/01/13 11:03:20;;;;;;;4.10;3.80;;;18.60;38.60;;;;;;5017026;28;20527;-65
2022/01/13 11:06:02;;;;;;;3.90;3.63;;;18.60;38.60;;;;;;5017898;28;20470;-65
2022/01/13 11:08:31;;;;;;;3.10;2.90;;;18.50;38.40;;;;;;5019325;28;20494;-65
2022/01/13 11:11:00;;;;;;;3.30;3.10;;;18.60;38.50;;;;;;5021618;28;20689;-66
2022/01/13 11:13:28;;;;;;;3.70;3.47;;;18.50;38.40;;;;;;5022421;28;20482;-65
2022/01/13 11:15:58;;;;;;;3.50;3.30;;;18.50;38.50;;;;;;5021499;28;20448;-65
2022/01/13 11:18:29;;;;;;;3.83;3.53;;;18.50;38.40;;;;;;5023451;28;20893;-65
2022/01/13 11:20:55;;;;;;;3.73;3.53;;;18.50;38.40;;;;;;5022458;28;20582;-65
2022/01/13 11:23:22;;;;;;;3.20;3.00;;;18.50;38.50;;;;;;5023409;28;20967;-65
2022/01/13 11:25:52;;;;;;;3.47;3.27;;;18.50;38.40;;;;;;5055072;28;20866;-65
2022/01/13 11:28:17;;;;;;;4.00;3.60;;;18.50;38.50;;;;;;5026619;28;20573;-65
2022/01/13 11:30:44;;;;;;;3.77;3.47;;;18.50;38.50;;;;;;5022078;28;20494;-65
2022/01/13 11:33:09;;;;;;;4.03;3.83;;;18.50;38.40;;;;;;5023165;28;20236;-65
2022/01/13 11:35:44;;;;;;;3.83;3.63;;;18.50;38.40;;;;;;5020820;28;20916;-65
2022/01/13 11:38:11;;;;;;;3.67;3.47;;;18.50;38.40;;;;;;5024671;28;20237;-65
2022/01/13 11:40:42;;;;;;;3.73;3.50;;;18.50;38.40;;;;;;5022958;28;20421;-66
2022/01/13 11:43:23;;;;;;;3.90;3.60;;;18.50;38.40;;;;;;5027911;28;20481;-66
2022/01/13 11:45:49;;;;;;;4.20;3.90;;;18.50;38.30;;;;;;5024278;28;20440;-66
2022/01/13 11:48:24;;;;;;;3.83;3.53;;;18.50;38.30;;;;;;5021437;28;20445;-66
2022/01/13 11:50:53;;;;;;;3.30;3.10;;;18.50;38.30;;;;;;5022212;28;20777;-68
2022/01/13 11:53:31;;;;;;;3.97;3.67;;;18.50;38.30;;;;;;5019731;28;21032;-67
2022/01/13 11:56:07;;;;;;;4.00;3.80;;;18.50;39.10;;;;;;5018315;28;20427;-67
2022/01/13 11:58:41;;;;;;;3.70;3.43;;;18.50;38.30;;;;;;5024248;28;20444;-66
2022/01/13 12:01:15;;;;;;;3.70;3.50;;;18.50;38.20;;;;;;5022370;28;20419;-66
2022/01/13 12:03:42;;;;;;;3.77;3.47;;;18.50;38.30;;;;;;5019786;28;20859;-64
2022/01/13 12:06:09;;;;;;;3.77;3.57;;;18.50;38.20;;;;;;5020155;28;20442;-68
2022/01/13 12:08:40;;;;;;;4.03;3.73;;;18.50;38.30;;;;;;5020514;28;20905;-67
2022/01/13 12:11:08;;;;;;;3.50;3.30;;;18.50;38.30;;;;;;5020450;28;20456;-67
2022/01/13 12:13:35;;;;;;;3.43;3.23;;;18.50;38.30;;;;;;5018434;28;20404;-67
2022/01/13 12:16:03;;;;;;;3.60;3.40;;;18.50;38.30;;;;;;5020163;28;20427;-66
2022/01/13 12:18:47;;;;;;;3.40;3.20;;;18.50;38.30;;;;;;5019601;28;20432;-66
2022/01/13 12:21:36;;;;;;;3.90;3.60;;;18.50;38.30;;;;;;5017242;28;20442;-65
2022/01/13 12:24:04;;;;;;;3.17;2.97;;;18.50;38.40;;;;;;5021816;28;20808;-66
2022/01/13 12:26:32;;;;;;;3.67;3.47;;;18.50;38.40;;;;;;5021911;28;21017;-66
2022/01/13 12:29:19;;;;;;;3.53;3.33;;;18.50;38.40;;;;;;5023828;28;20527;-66
2022/01/13 12:31:49;;;;;;;3.00;2.80;;;18.60;38.50;;;;;;5019568;28;20428;-66
2022/01/13 12:34:33;;;;;;;3.70;3.50;;;18.50;38.40;;;;;;5019357;28;20419;-66
2022/01/13 12:37:19;;;;;;;4.13;3.87;;;18.60;38.50;;;;;;5016541;28;20955;-66
2022/01/13 12:39:52;;;;;;;3.30;3.10;;;18.50;38.30;;;;;;5022583;28;20454;-66
2022/01/13 12:42:24;;;;;;;3.97;3.50;;;18.50;38.40;;;;;;5022884;28;20442;-66
2022/01/13 12:47:35;;;;;;;3.13;2.80;;;18.50;38.40;;;;;;5020851;28;20564;-66
2022/01/13 12:50:11;;;;;;;3.70;3.50;;;18.50;38.40;;;;;;5021579;28;20444;-66
2022/01/13 12:52:36;;;;;;;3.27;3.07;;;18.50;38.40;;;;;;5018507;28;20521;-65
2022/01/13 12:55:02;;;;;;;3.53;3.33;;;18.50;38.40;;;;;;5019811;28;21186;-66
2022/01/13 12:57:28;;;;;;;3.67;3.47;;;18.50;38.40;;;;;;5019474;28;20256;-66
2022/01/13 12:59:55;;;;;;;3.30;3.00;;;18.50;38.40;;;;;;5020844;28;20972;-66
2022/01/13 13:02:21;;;;;;;3.30;3.10;;;18.50;38.40;;;;;;5015871;28;20242;-66
2022/01/13 13:04:47;;;;;;;3.90;3.67;;;18.50;38.50;;;;;;5023968;28;20983;-70
2022/01/13 13:07:13;;;;;;;3.53;3.27;;;18.50;38.50;;;;;;5018829;28;20215;-67
2022/01/13 13:09:39;;;;;;;3.40;3.20;;;18.50;38.40;;;;;;5025101;28;20924;-67
2022/01/13 13:12:09;;;;;;;2.70;2.50;;;18.50;38.40;;;;;;5020275;28;20228;-67
2022/01/13 13:17:37;;;;;;;3.70;3.40;;;18.50;38.40;;;;;;5020419;28;20435;-65
2022/01/13 13:20:06;;;;;;;3.57;3.30;;;18.50;38.50;;;;;;5024410;28;20419;-67
2022/01/13 13:22:45;;;;;;;3.27;3.07;;;18.50;38.50;;;;;;5021801;28;20432;-67
2022/01/13 13:25:11;;;;;;;3.60;3.40;;;18.50;38.50;;;;;;5001971;28;20424;-66
2022/01/13 13:27:37;;;;;;;3.60;3.30;;;18.50;38.50;;;;;;5000866;28;20805;-66